Stolt Dipper — ZCMY3 — position and weather

sailwx.info

Track history (hours):
 
Tides and Currents Weather Stations Pressure Air Temp Water Temp Dewpoint Dewpoint Depression Visibility Wind Speed Wind Dir Waves Ship Positions

Stolt Dipper

Last reported at 2016-Aug-25 21:33 UTC. Time now 2016-Aug-25 21:58 UTC.
Position N 52°03' E 003°20'.

Length 96 m; draft 5.1 m.

Type: Tanker. MMSI: 319036000.

Date/timePositionNaut miles runAvg speedWind from/ knotsBaromVisibWave heightAir tempDewpointWater temp
2016-Aug-25 21:33N 52°03' E 003°20'1312.6
2016-Aug-25 20:33N 52°04' E 003°40'1211.9
2016-Aug-25 19:33N 52°01' E 003°59'1211.8
2016-Aug-25 18:33N 51°55' E 004°15'2 0.2
2016-Aug-25 07:29N 51°53' E 004°16'0 0.0
2016-Aug-25 06:29N 51°53' E 004°16'0 0.0
2016-Aug-25 03:24N 51°53' E 004°16'0 0.0
2016-Aug-25 01:18N 51°53' E 004°16'0 0.0
2016-Aug-25 00:29N 51°53' E 004°16'0 0.0
2016-Aug-24 23:18N 51°53' E 004°16'0 0.0
2016-Aug-24 22:24N 51°53' E 004°16'0 0.0
2016-Aug-24 21:17N 51°53' E 004°16'0 0.0
2016-Aug-24 13:26N 51°53' E 004°16'0 0.0
2016-Aug-24 11:33N 51°53' E 004°16'0 0.0
2016-Aug-24 08:06N 51°53' E 004°16'0 0.0
2016-Aug-23 21:29N 51°53' E 004°16'0 0.0
2016-Aug-23 09:12N 51°53' E 004°16'0 0.0
2016-Aug-23 07:29N 51°53' E 004°16'0 0.0
2016-Aug-23 06:30N 51°53' E 004°16'0 0.0
2016-Aug-23 05:30N 51°53' E 004°16'0 0.0
2016-Aug-23 04:30N 51°53' E 004°16'0 0.0
2016-Aug-23 03:24N 51°53' E 004°16'0 0.0
2016-Aug-23 02:29N 51°53' E 004°16'0 0.0
2016-Aug-23 01:29N 51°53' E 004°16'0 0.0
2016-Aug-23 00:30N 51°53' E 004°16'0 0.0
2016-Aug-22 23:29N 51°53' E 004°16'0 0.0
2016-Aug-22 22:21N 51°53' E 004°16'0 0.0
2016-Aug-22 21:24N 51°53' E 004°16'0 0.0
2016-Aug-22 20:23N 51°53' E 004°16'0 0.0
2016-Aug-22 19:33N 51°53' E 004°16'0 0.0
2016-Aug-22 18:30N 51°53' E 004°16'0 0.0
2016-Aug-22 17:29N 51°53' E 004°16'0 0.0
2016-Aug-22 16:29N 51°53' E 004°16'0 0.0
2016-Aug-22 15:27N 51°53' E 004°16'0 0.0
2016-Aug-22 14:18N 51°53' E 004°16'0 0.0
2016-Aug-22 13:18N 51°53' E 004°16'0 0.1
2016-Aug-22 12:33N 51°53' E 004°16'4 4.1
2016-Aug-22 11:33N 51°56' E 004°13'1010.4
2016-Aug-22 10:33N 51°60' E 003°57'9 9.0
2016-Aug-22 09:33N 51°59' E 003°43'1212.3
2016-Aug-22 08:33N 51°55' E 003°24'1312.6
2016-Aug-22 07:30N 51°51' E 003°03'1313.1
2016-Aug-22 06:33N 51°47' E 002°44'1413.4
2016-Aug-22 05:31N 51°39' E 002°27'1414.6
2016-Aug-22 04:33N 51°27' E 002°13'1414.5
2016-Aug-22 03:33N 51°15' E 002°03'1616.1
2016-Aug-22 02:34N 51°05' E 001°42'1616.0
2016-Aug-22 01:34N 50°52' E 001°28'5613.9
2016-Aug-21 21:31N 50°23' E 000°12'1314.1
2016-Aug-21 20:33N 50°19' W 000°08'9510.6
2016-Aug-21 11:33N 50°13' W 002°37'1413.8
2016-Aug-21 10:34N 50°10' W 002°58'1413.9
2016-Aug-21 09:34N 50°08' W 003°20'1414.2
2016-Aug-21 08:34N 50°03' W 003°41'1414.1
2016-Aug-21 07:33N 50°02' W 004°03'1413.9
2016-Aug-21 06:33N 49°60' W 004°24'1413.5
2016-Aug-21 05:32N 49°57' W 004°45'1312.4
2016-Aug-21 04:30N 49°55' W 005°05'43 8.0
2016-Aug-20 23:08N 50°20' W 005°59'6 9.3
2016-Aug-20 22:32N 50°24' W 005°52'9 9.2
2016-Aug-20 21:34N 50°30' W 005°42'8 8.0
2016-Aug-20 20:34N 50°35' W 005°32'7 6.9
2016-Aug-20 19:33N 50°40' W 005°24'6 5.8
2016-Aug-20 18:34N 50°43' W 005°17'5 5.3
2016-Aug-20 17:34N 50°47' W 005°10'5 5.4
2016-Aug-20 16:34N 50°50' W 005°04'6 6.0
2016-Aug-20 15:33N 50°54' W 004°56'6 6.3
2016-Aug-20 14:34N 50°58' W 004°49'7 7.0
2016-Aug-20 13:33N 51°03' W 004°40'7 7.4
2016-Aug-20 12:33N 51°08' W 004°31'11 9.7
2016-Aug-20 11:23N 51°15' W 004°18'40 1.3
2016-Aug-19 04:03N 51°22' W 003°15'4 2.1
2016-Aug-19 02:10N 51°19' W 003°20'37 2.7
2016-Aug-18 12:33N 51°15' W 004°18'1211.8
2016-Aug-18 11:33N 51°07' W 004°32'1110.7
2016-Aug-18 10:33N 51°00' W 004°45'1111.0
2016-Aug-18 09:34N 50°53' W 004°58'1111.4
2016-Aug-18 08:34N 50°45' W 005°12'1111.4
2016-Aug-18 07:34N 50°37' W 005°24'1212.1
2016-Aug-18 06:34N 50°29' W 005°38'1312.6
2016-Aug-18 05:33N 50°20' W 005°52'57 9.5
2016-Aug-17 23:33N 49°59' W 004°29'1613.8
2016-Aug-17 22:21N 49°60' W 004°03'1113.4
2016-Aug-17 21:33N 50°01' W 003°47'1212.3
2016-Aug-17 20:33N 50°05' W 003°29'1111.1
2016-Aug-17 19:33N 50°11' W 003°14'1010.4
2016-Aug-17 18:33N 50°11' W 002°58'1110.7
2016-Aug-17 17:33N 50°12' W 002°41'1111.5
2016-Aug-17 16:33N 50°14' W 002°23'1312.7
2016-Aug-17 15:33N 50°17' W 002°04'1414.2
2016-Aug-17 14:34N 50°19' W 001°42'1515.4
2016-Aug-17 13:34N 50°22' W 001°18'1616.1
2016-Aug-17 12:34N 50°25' W 000°53'1514.8
2016-Aug-17 11:34N 50°28' W 000°30'1413.6
2016-Aug-17 10:34N 50°30' W 000°09'1312.5
2016-Aug-17 09:33N 50°33' E 000°10'2611.5
2016-Aug-17 07:16N 50°44' E 000°48'913.1
2016-Aug-17 06:33N 50°50' E 000°59'1514.7
2016-Aug-17 05:33N 50°59' E 001°17'1515.1
2016-Aug-17 04:34N 51°09' E 001°36'1313.3
2016-Aug-17 03:33N 51°19' E 001°50'1111.1
2016-Aug-17 02:33N 51°28' E 002°00'1010.3
2016-Aug-17 01:33N 51°35' E 002°12'1010.1
2016-Aug-17 00:33N 51°43' E 002°23'3410.4
2016-Aug-16 21:15N 52°03' E 003°07'912.1
2016-Aug-16 20:32N 52°03' E 003°22'1212.3
2016-Aug-16 19:33N 52°03' E 003°41'9 8.6
2016-Aug-16 18:33N 51°55' E 003°47'0 0.0
2016-Aug-16 17:18N 51°55' E 003°47'0 0.0
2016-Aug-16 16:33N 51°55' E 003°47'0 0.0
2016-Aug-16 15:33N 51°55' E 003°48'0 0.1
2016-Aug-16 14:30N 51°56' E 003°48'0 0.0
2016-Aug-16 13:33N 51°56' E 003°48'0 0.1
2016-Aug-16 12:30N 51°55' E 003°48'0 0.1
2016-Aug-16 11:27N 51°55' E 003°47'0 0.1
2016-Aug-16 10:12N 51°55' E 003°47'0 0.0
2016-Aug-16 07:33N 51°55' E 003°47'0 0.0
2016-Aug-16 04:27N 51°55' E 003°47'0 0.0
2016-Aug-16 03:33N 51°55' E 003°47'0 0.1
2016-Aug-16 02:33N 51°56' E 003°48'0 0.0
2016-Aug-16 01:30N 51°56' E 003°48'0 0.0
2016-Aug-16 00:33N 51°56' E 003°48'0 0.1
2016-Aug-15 23:21N 51°55' E 003°48'  
Track history (hours):
 
Tides and Currents Weather Stations Pressure Air Temp Water Temp Dewpoint Dewpoint Depression Visibility Wind Speed Wind Dir Waves Ship Positions

Stolt Dipper

Last reported at 2016-Aug-25 21:33 UTC. Time now 2016-Aug-25 21:58 UTC.
Position N 52°03' E 003°20'.

Length 96 m; draft 5.1 m.

Type: Tanker. MMSI: 319036000.

Date/timePositionNaut miles runAvg speedWind from/ knotsBaromVisibWave heightAir tempDewpointWater temp
2016-Aug-25 21:33N 52°03' E 003°20'1312.6
2016-Aug-25 20:33N 52°04' E 003°40'1211.9
2016-Aug-25 19:33N 52°01' E 003°59'1211.8
2016-Aug-25 18:33N 51°55' E 004°15'2 0.2
2016-Aug-25 07:29N 51°53' E 004°16'0 0.0
2016-Aug-25 06:29N 51°53' E 004°16'0 0.0
2016-Aug-25 03:24N 51°53' E 004°16'0 0.0
2016-Aug-25 01:18N 51°53' E 004°16'0 0.0
2016-Aug-25 00:29N 51°53' E 004°16'0 0.0
2016-Aug-24 23:18N 51°53' E 004°16'0 0.0
2016-Aug-24 22:24N 51°53' E 004°16'0 0.0
2016-Aug-24 21:17N 51°53' E 004°16'0 0.0
2016-Aug-24 13:26N 51°53' E 004°16'0 0.0
2016-Aug-24 11:33N 51°53' E 004°16'0 0.0
2016-Aug-24 08:06N 51°53' E 004°16'0 0.0
2016-Aug-23 21:29N 51°53' E 004°16'0 0.0
2016-Aug-23 09:12N 51°53' E 004°16'0 0.0
2016-Aug-23 07:29N 51°53' E 004°16'0 0.0
2016-Aug-23 06:30N 51°53' E 004°16'0 0.0
2016-Aug-23 05:30N 51°53' E 004°16'0 0.0
2016-Aug-23 04:30N 51°53' E 004°16'0 0.0
2016-Aug-23 03:24N 51°53' E 004°16'0 0.0
2016-Aug-23 02:29N 51°53' E 004°16'0 0.0
2016-Aug-23 01:29N 51°53' E 004°16'0 0.0
2016-Aug-23 00:30N 51°53' E 004°16'0 0.0
2016-Aug-22 23:29N 51°53' E 004°16'0 0.0
2016-Aug-22 22:21N 51°53' E 004°16'0 0.0
2016-Aug-22 21:24N 51°53' E 004°16'0 0.0
2016-Aug-22 20:23N 51°53' E 004°16'0 0.0
2016-Aug-22 19:33N 51°53' E 004°16'0 0.0
2016-Aug-22 18:30N 51°53' E 004°16'0 0.0
2016-Aug-22 17:29N 51°53' E 004°16'0 0.0
2016-Aug-22 16:29N 51°53' E 004°16'0 0.0
2016-Aug-22 15:27N 51°53' E 004°16'0 0.0
2016-Aug-22 14:18N 51°53' E 004°16'0 0.0
2016-Aug-22 13:18N 51°53' E 004°16'0 0.1
2016-Aug-22 12:33N 51°53' E 004°16'4 4.1
2016-Aug-22 11:33N 51°56' E 004°13'1010.4
2016-Aug-22 10:33N 51°60' E 003°57'9 9.0
2016-Aug-22 09:33N 51°59' E 003°43'1212.3
2016-Aug-22 08:33N 51°55' E 003°24'1312.6
2016-Aug-22 07:30N 51°51' E 003°03'1313.1
2016-Aug-22 06:33N 51°47' E 002°44'1413.4
2016-Aug-22 05:31N 51°39' E 002°27'1414.6
2016-Aug-22 04:33N 51°27' E 002°13'1414.5
2016-Aug-22 03:33N 51°15' E 002°03'1616.1
2016-Aug-22 02:34N 51°05' E 001°42'1616.0
2016-Aug-22 01:34N 50°52' E 001°28'5613.9
2016-Aug-21 21:31N 50°23' E 000°12'1314.1
2016-Aug-21 20:33N 50°19' W 000°08'9510.6
2016-Aug-21 11:33N 50°13' W 002°37'1413.8
2016-Aug-21 10:34N 50°10' W 002°58'1413.9
2016-Aug-21 09:34N 50°08' W 003°20'1414.2
2016-Aug-21 08:34N 50°03' W 003°41'1414.1
2016-Aug-21 07:33N 50°02' W 004°03'1413.9
2016-Aug-21 06:33N 49°60' W 004°24'1413.5
2016-Aug-21 05:32N 49°57' W 004°45'1312.4
2016-Aug-21 04:30N 49°55' W 005°05'43 8.0
2016-Aug-20 23:08N 50°20' W 005°59'6 9.3
2016-Aug-20 22:32N 50°24' W 005°52'9 9.2
2016-Aug-20 21:34N 50°30' W 005°42'8 8.0
2016-Aug-20 20:34N 50°35' W 005°32'7 6.9
2016-Aug-20 19:33N 50°40' W 005°24'6 5.8
2016-Aug-20 18:34N 50°43' W 005°17'5 5.3
2016-Aug-20 17:34N 50°47' W 005°10'5 5.4
2016-Aug-20 16:34N 50°50' W 005°04'6 6.0
2016-Aug-20 15:33N 50°54' W 004°56'6 6.3
2016-Aug-20 14:34N 50°58' W 004°49'7 7.0
2016-Aug-20 13:33N 51°03' W 004°40'7 7.4
2016-Aug-20 12:33N 51°08' W 004°31'11 9.7
2016-Aug-20 11:23N 51°15' W 004°18'40 1.3
2016-Aug-19 04:03N 51°22' W 003°15'4 2.1
2016-Aug-19 02:10N 51°19' W 003°20'37 2.7
2016-Aug-18 12:33N 51°15' W 004°18'1211.8
2016-Aug-18 11:33N 51°07' W 004°32'1110.7
2016-Aug-18 10:33N 51°00' W 004°45'1111.0
2016-Aug-18 09:34N 50°53' W 004°58'1111.4
2016-Aug-18 08:34N 50°45' W 005°12'1111.4
2016-Aug-18 07:34N 50°37' W 005°24'1212.1
2016-Aug-18 06:34N 50°29' W 005°38'1312.6
2016-Aug-18 05:33N 50°20' W 005°52'57 9.5
2016-Aug-17 23:33N 49°59' W 004°29'1613.8
2016-Aug-17 22:21N 49°60' W 004°03'1113.4
2016-Aug-17 21:33N 50°01' W 003°47'1212.3
2016-Aug-17 20:33N 50°05' W 003°29'1111.1
2016-Aug-17 19:33N 50°11' W 003°14'1010.4
2016-Aug-17 18:33N 50°11' W 002°58'1110.7
2016-Aug-17 17:33N 50°12' W 002°41'1111.5
2016-Aug-17 16:33N 50°14' W 002°23'1312.7
2016-Aug-17 15:33N 50°17' W 002°04'1414.2
2016-Aug-17 14:34N 50°19' W 001°42'1515.4
2016-Aug-17 13:34N 50°22' W 001°18'1616.1
2016-Aug-17 12:34N 50°25' W 000°53'1514.8
2016-Aug-17 11:34N 50°28' W 000°30'1413.6
2016-Aug-17 10:34N 50°30' W 000°09'1312.5
2016-Aug-17 09:33N 50°33' E 000°10'2611.5
2016-Aug-17 07:16N 50°44' E 000°48'913.1
2016-Aug-17 06:33N 50°50' E 000°59'1514.7
2016-Aug-17 05:33N 50°59' E 001°17'1515.1
2016-Aug-17 04:34N 51°09' E 001°36'1313.3
2016-Aug-17 03:33N 51°19' E 001°50'1111.1
2016-Aug-17 02:33N 51°28' E 002°00'1010.3
2016-Aug-17 01:33N 51°35' E 002°12'1010.1
2016-Aug-17 00:33N 51°43' E 002°23'3410.4
2016-Aug-16 21:15N 52°03' E 003°07'912.1
2016-Aug-16 20:32N 52°03' E 003°22'1212.3
2016-Aug-16 19:33N 52°03' E 003°41'9 8.6
2016-Aug-16 18:33N 51°55' E 003°47'0 0.0
2016-Aug-16 17:18N 51°55' E 003°47'0 0.0
2016-Aug-16 16:33N 51°55' E 003°47'0 0.0
2016-Aug-16 15:33N 51°55' E 003°48'0 0.1
2016-Aug-16 14:30N 51°56' E 003°48'0 0.0
2016-Aug-16 13:33N 51°56' E 003°48'0 0.1
2016-Aug-16 12:30N 51°55' E 003°48'0 0.1
2016-Aug-16 11:27N 51°55' E 003°47'0 0.1
2016-Aug-16 10:12N 51°55' E 003°47'0 0.0
2016-Aug-16 07:33N 51°55' E 003°47'0 0.0
2016-Aug-16 04:27N 51°55' E 003°47'0 0.0
2016-Aug-16 03:33N 51°55' E 003°47'0 0.1
2016-Aug-16 02:33N 51°56' E 003°48'0 0.0
2016-Aug-16 01:30N 51°56' E 003°48'0 0.0
2016-Aug-16 00:33N 51°56' E 003°48'0 0.1
2016-Aug-15 23:21N 51°55' E 003°48'  

Dump ship's entire track history